Time;durP1;ratioP1;P1;durP2;ratioP2;P2;SDS_P1;SDS_P2;PMS_P1;PMS_P2;Temp;Humidity;BMP_temperature;BMP_pressure;BME280_temperature;BME280_humidity;BME280_pressure;Samples;Min_cycle;Max_cycle;Signal;HPM_P1;HPM_P2
2024/01/13 07:34:02;;;;;;;5.22;3.72;;;;;;;;;;6164279;23;20017;31
2024/01/13 17:58:26;;;;;;;5.97;4.50;;;;;;;;;;6186285;23;20006;-88
2024/01/13 18:00:51;;;;;;;5.97;4.25;;;;;;;;;;6163739;23;20128;-87
2024/01/13 18:03:20;;;;;;;5.85;4.30;;;;;;;;;;6186847;23;20009;-87
2024/01/13 18:05:46;;;;;;;6.38;4.55;;;;;;;;;;6132245;23;20009;-86
2024/01/13 18:08:12;;;;;;;6.32;4.18;;;;;;;;;;6156331;23;20015;-88
2024/01/13 18:10:37;;;;;;;7.10;4.90;;;;;;;;;;6155862;23;20413;-88
2024/01/13 18:13:03;;;;;;;6.75;4.55;;;;;;;;;;6156855;23;20009;-90
2024/01/13 18:15:30;;;;;;;7.90;4.68;;;;;;;;;;6159467;23;20357;-90
2024/01/13 18:18:04;;;;;;;6.07;4.50;;;;;;;;;;6162768;23;20006;-88
2024/01/13 18:20:30;;;;;;;6.93;4.45;;;;;;;;;;6173664;23;20009;-89
2024/01/13 18:22:58;;;;;;;6.35;4.40;;;;;;;;;;6160310;23;20006;-89
2024/01/13 18:25:24;;;;;;;7.18;5.40;;;;;;;;;;6158115;23;20005;-90
2024/01/13 18:27:50;;;;;;;6.45;4.80;;;;;;;;;;6156197;23;20036;-88
2024/01/13 18:30:16;;;;;;;5.57;4.22;;;;;;;;;;6156486;23;20005;-88
2024/01/13 18:32:41;;;;;;;4.88;4.32;;;;;;;;;;6157953;23;20056;-88
2024/01/13 18:35:25;;;;;;;7.25;4.85;;;;;;;;;;6158541;23;20009;-87
2024/01/13 18:37:51;;;;;;;10.98;9.00;;;;;;;;;;6162066;23;20380;-88
2024/01/13 18:42:04;;;;;;;14.07;10.48;;;;;;;;;;4969242;27;4887814;-88
2024/01/13 18:44:38;;;;;;;17.02;12.60;;;;;;;;;;5121920;22;20048;-89
2024/01/13 18:47:33;;;;;;;21.92;13.48;;;;;;;;;;5078046;28;20035;-90
2024/01/13 18:50:03;;;;;;;16.60;11.35;;;;;;;;;;5069991;28;20025;-93
2024/01/13 18:52:42;;;;;;;12.95;9.07;;;;;;;;;;5087132;28;20028;-95
2024/01/13 18:55:09;;;;;;;17.40;9.70;;;;;;;;;;5088914;22;20037;-89
2024/01/13 18:57:35;;;;;;;28.58;13.68;;;;;;;;;;5066041;28;20021;-91
2024/01/13 19:00:01;;;;;;;16.58;9.15;;;;;;;;;;5053887;28;20064;-91
2024/01/13 19:02:30;;;;;;;13.73;10.38;;;;;;;;;;5058968;28;20025;-90
2024/01/13 19:04:56;;;;;;;11.70;7.57;;;;;;;;;;5069170;28;20029;-88
2024/01/13 19:07:23;;;;;;;17.45;9.43;;;;;;;;;;5062866;28;20051;-90
2024/01/13 19:09:51;;;;;;;50.08;25.30;;;;;;;;;;5076562;28;20029;-89
2024/01/13 19:12:21;;;;;;;102.45;36.88;;;;;;;;;;5060301;28;20468;-91
2024/01/13 19:14:48;;;;;;;145.68;51.42;;;;;;;;;;5053984;28;20056;-89
2024/01/13 19:17:14;;;;;;;8.65;5.07;;;;;;;;;;5047425;28;20029;-90
2024/01/13 19:19:40;;;;;;;7.78;4.38;;;;;;;;;;5061821;22;20073;-90
2024/01/13 19:22:08;;;;;;;6.53;4.80;;;;;;;;;;5024053;28;20045;-89
2024/01/13 19:24:35;;;;;;;9.55;6.30;;;;;;;;;;5039707;28;20029;-88
2024/01/13 19:27:09;;;;;;;10.20;6.75;;;;;;;;;;5040759;28;20531;-88
2024/01/13 19:29:35;;;;;;;9.75;6.32;;;;;;;;;;5039278;28;20108;-89
2024/01/13 19:32:00;;;;;;;14.00;8.50;;;;;;;;;;5035885;28;20068;-89
2024/01/13 19:34:26;;;;;;;12.13;8.30;;;;;;;;;;5034142;28;20029;-89
2024/01/13 19:36:52;;;;;;;12.23;7.78;;;;;;;;;;5033475;28;20026;-90
2024/01/13 19:39:17;;;;;;;10.07;7.80;;;;;;;;;;5033783;28;20071;-92
2024/01/13 19:41:42;;;;;;;12.65;8.18;;;;;;;;;;5033550;28;20061;-91
2024/01/13 19:44:09;;;;;;;9.25;6.30;;;;;;;;;;5033839;28;20030;-90
2024/01/13 19:46:35;;;;;;;9.98;6.22;;;;;;;;;;5021817;28;20477;-91
2024/01/13 19:49:01;;;;;;;7.82;5.40;;;;;;;;;;5032452;28;20082;-91
2024/01/13 19:51:27;;;;;;;15.55;6.45;;;;;;;;;;5030353;28;20038;-89
2024/01/13 19:53:52;;;;;;;11.50;6.95;;;;;;;;;;5019697;28;20017;-90
2024/01/13 19:56:21;;;;;;;27.20;15.43;;;;;;;;;;5011059;28;20030;-92
2024/01/13 19:58:47;;;;;;;118.55;48.83;;;;;;;;;;5001579;28;20029;-91
2024/01/13 20:01:13;;;;;;;34.60;15.18;;;;;;;;;;5019474;28;20033;-90
2024/01/13 20:03:38;;;;;;;18.23;9.82;;;;;;;;;;5019430;28;20036;-91
2024/01/13 20:06:04;;;;;;;18.20;10.02;;;;;;;;;;5019375;28;20109;-90
2024/01/13 20:08:31;;;;;;;18.05;11.18;;;;;;;;;;5019195;28;20022;-91
2024/01/13 20:10:56;;;;;;;22.05;12.43;;;;;;;;;;5019127;28;20032;-91
2024/01/13 20:13:22;;;;;;;22.83;11.48;;;;;;;;;;5019189;28;20467;-89
2024/01/13 20:15:58;;;;;;;103.43;37.35;;;;;;;;;;5020896;28;20533;-91
2024/01/13 20:18:23;;;;;;;53.60;22.63;;;;;;;;;;5040390;28;20030;-95
2024/01/13 20:20:49;;;;;;;26.83;15.00;;;;;;;;;;5030170;28;20168;-95
2024/01/13 20:23:15;;;;;;;21.23;12.07;;;;;;;;;;5021455;28;20116;-92
2024/01/13 20:25:43;;;;;;;15.98;10.93;;;;;;;;;;5035728;28;20033;-89
2024/01/13 20:28:10;;;;;;;14.75;11.25;;;;;;;;;;5027154;28;20066;-88
2024/01/13 20:30:37;;;;;;;11.50;7.45;;;;;;;;;;5025736;28;20083;-90
2024/01/13 20:33:11;;;;;;;12.32;8.85;;;;;;;;;;5026707;28;20104;-90
2024/01/13 20:35:43;;;;;;;11.48;8.23;;;;;;;;;;5043376;28;20068;-90
2024/01/13 20:40:34;;;;;;;11.70;7.78;;;;;;;;;;5116259;22;20456;-90
2024/01/13 20:43:00;;;;;;;13.45;8.27;;;;;;;;;;5069375;28;20381;-90
2024/01/13 20:45:26;;;;;;;13.25;9.18;;;;;;;;;;5075926;28;20115;-89
2024/01/13 20:47:52;;;;;;;12.23;8.57;;;;;;;;;;5074408;28;20056;-92
2024/01/13 20:50:18;;;;;;;14.70;8.40;;;;;;;;;;5078950;28;20032;-91
2024/01/13 20:52:43;;;;;;;14.38;9.02;;;;;;;;;;5078503;28;20024;-90
2024/01/13 20:55:09;;;;;;;12.30;8.77;;;;;;;;;;5078105;28;20382;-88
2024/01/13 20:57:34;;;;;;;13.25;8.90;;;;;;;;;;5078234;28;20458;-89
2024/01/13 21:00:00;;;;;;;11.55;7.97;;;;;;;;;;5078022;28;20496;-90
2024/01/13 21:02:26;;;;;;;12.73;7.93;;;;;;;;;;5078112;28;20039;-90
2024/01/13 21:04:51;;;;;;;7.43;5.50;;;;;;;;;;5077123;28;20056;-90
2024/01/13 21:07:17;;;;;;;7.45;5.15;;;;;;;;;;5061763;28;20425;-90
2024/01/13 21:09:43;;;;;;;7.60;5.78;;;;;;;;;;5062347;28;20028;-88
2024/01/13 21:12:09;;;;;;;9.60;6.50;;;;;;;;;;5077612;28;20027;-88
2024/01/13 21:14:34;;;;;;;9.77;5.75;;;;;;;;;;5077455;28;20020;-88
2024/01/13 21:17:00;;;;;;;6.65;4.43;;;;;;;;;;5077472;28;20028;-88
2024/01/13 21:19:25;;;;;;;6.95;5.13;;;;;;;;;;5077362;28;20359;-88
2024/01/13 21:21:51;;;;;;;22.65;11.18;;;;;;;;;;5074205;28;20131;-87
2024/01/13 21:24:16;;;;;;;5.85;4.53;;;;;;;;;;5077636;28;20020;-88
2024/01/13 21:26:43;;;;;;;6.43;3.80;;;;;;;;;;5077459;28;20027;-87
2024/01/13 21:29:12;;;;;;;10.77;7.07;;;;;;;;;;5077252;28;20485;-91
2024/01/13 21:31:39;;;;;;;11.20;7.15;;;;;;;;;;5077244;28;20113;-89
2024/01/13 21:34:04;;;;;;;13.18;7.72;;;;;;;;;;5077238;28;20093;-90
2024/01/13 21:36:30;;;;;;;16.65;10.07;;;;;;;;;;5077416;28;20374;-91
2024/01/13 21:38:55;;;;;;;11.55;6.95;;;;;;;;;;5077357;28;20044;-92
2024/01/13 21:41:21;;;;;;;10.50;6.60;;;;;;;;;;5078333;28;20024;-90
2024/01/13 21:43:47;;;;;;;7.22;5.28;;;;;;;;;;5078111;28;20371;-90
2024/01/13 21:46:12;;;;;;;12.52;8.45;;;;;;;;;;5077726;28;20022;-92
2024/01/13 21:48:38;;;;;;;10.80;7.38;;;;;;;;;;5078182;28;20462;-90
2024/01/13 21:51:04;;;;;;;11.13;7.82;;;;;;;;;;5077508;28;20036;-89
2024/01/13 21:53:30;;;;;;;12.45;8.45;;;;;;;;;;5077369;28;20462;-90
2024/01/13 21:55:55;;;;;;;13.63;8.68;;;;;;;;;;5077085;28;20034;-88
2024/01/13 21:58:22;;;;;;;10.95;7.22;;;;;;;;;;5077643;28;20024;-89
2024/01/13 22:00:48;;;;;;;9.68;6.50;;;;;;;;;;5075819;28;20382;-89
2024/01/13 22:03:13;;;;;;;9.05;6.32;;;;;;;;;;5069708;28;20025;-90
2024/01/13 22:05:39;;;;;;;12.02;7.75;;;;;;;;;;5076934;28;20020;-94
2024/01/13 22:08:05;;;;;;;10.70;6.15;;;;;;;;;;5077249;28;20020;-92
2024/01/13 22:10:35;;;;;;;11.00;6.90;;;;;;;;;;5065354;28;20048;-93
2024/01/13 22:13:04;;;;;;;19.67;10.95;;;;;;;;;;5071442;28;20078;-92
2024/01/13 22:15:30;;;;;;;18.20;9.88;;;;;;;;;;5068281;28;20027;-94
2024/01/13 22:17:56;;;;;;;10.82;6.50;;;;;;;;;;5076920;28;20016;-94
2024/01/13 22:20:22;;;;;;;9.63;5.60;;;;;;;;;;5076500;28;20123;-94
2024/01/13 22:22:47;;;;;;;10.05;6.03;;;;;;;;;;5076858;28;20097;-94
2024/01/13 22:25:13;;;;;;;8.20;5.78;;;;;;;;;;5076721;28;20035;-93
2024/01/13 22:27:38;;;;;;;10.18;6.70;;;;;;;;;;5076994;28;20028;-89
2024/01/13 22:30:05;;;;;;;10.95;7.15;;;;;;;;;;5062869;28;20027;-95
2024/01/13 22:32:31;;;;;;;8.77;6.10;;;;;;;;;;5077253;28;20201;-91
2024/01/13 22:34:56;;;;;;;10.50;7.38;;;;;;;;;;5073196;28;20449;-93
2024/01/13 22:37:22;;;;;;;10.52;7.40;;;;;;;;;;5072186;28;20021;-91
2024/01/13 22:39:47;;;;;;;11.65;7.15;;;;;;;;;;5071938;28;20052;-94
2024/01/13 22:42:13;;;;;;;10.43;7.30;;;;;;;;;;5065314;28;20028;-94
2024/01/13 22:44:38;;;;;;;8.75;6.70;;;;;;;;;;5077935;28;20020;-93
2024/01/13 22:47:04;;;;;;;12.35;6.93;;;;;;;;;;5064108;28;20028;-92
2024/01/13 22:49:29;;;;;;;10.50;7.03;;;;;;;;;;5067970;28;20028;-92
2024/01/13 22:51:56;;;;;;;10.05;6.53;;;;;;;;;;5063193;28;20122;-89
2024/01/13 22:54:22;;;;;;;9.85;5.88;;;;;;;;;;5080579;28;20032;-92
2024/01/13 22:56:48;;;;;;;8.65;5.70;;;;;;;;;;5089224;28;20375;-89
